| time (UTC) | temp C | wind direction | speed KPH | gust KPH | rain 1hr cm | rain 24hr cm | rain mn cm | humidity % | barometer mb |
| 20260506182004 | 15 | 0 | 0.0 | 0.0 | 0.05 | 0.38 | 0.38 | 1 | 1007.5 |
| 20260506180005 | 15 | 125 | 0.0 | 1.6 | 0.03 | 0.36 | 0.36 | 1 | 1007.6 |
| 20260506174004 | 15 | 0 | 0.0 | 0.0 | 0.05 | 0.36 | 0.36 | 1 | 1007.6 |
| 20260506172004 | 15 | 122 | 0.0 | 3.2 | 0.05 | 0.33 | 0.33 | 1 | 1007.7 |
| 20260506171004 | 15 | 302 | 0.0 | 3.2 | 0.08 | 0.33 | 0.33 | 1 | 1007.8 |
| 20260506170004 | 15 | 0 | 0.0 | 0.0 | 0.08 | 0.33 | 0.33 | 1 | 1007.9 |
| 20260506165004 | 15 | 70 | 0.0 | 1.6 | 0.13 | 0.33 | 0.33 | 1 | 1007.8 |
| 20260506164004 | 15 | 113 | 0.0 | 3.2 | 0.10 | 0.30 | 0.30 | 1 | 1007.9 |
| 20260506163004 | 15 | 198 | 0.0 | 6.4 | 0.13 | 0.30 | 0.30 | 1 | 1007.5 |
| 20260506162004 | 15 | 143 | 0.0 | 3.2 | 0.15 | 0.28 | 0.28 | 1 | 1007.5 |
| 20260506161004 | 16 | 156 | 0.0 | 3.2 | 0.15 | 0.25 | 0.25 | 1 | 1008.0 |
| 20260506154004 | 16 | 0 | 0.0 | 0.0 | 0.18 | 0.20 | 0.20 | 1 | 1008.8 |
| 20260506152004 | 16 | 0 | 0.0 | 0.0 | 0.13 | 0.13 | 0.13 | 1 | 1009.2 |
| 20260506151004 | 16 | 0 | 0.0 | 0.0 | 0.10 | 0.10 | 0.10 | 1 | 1008.8 |
| 20260506150004 | 17 | 114 | 0.0 | 1.6 | 0.10 | 0.10 | 0.10 | 1 | 1008.8 |
| 20260506145004 | 17 | 0 | 0.0 | 0.0 | 0.05 | 0.05 | 0.05 | 1 | 1008.8 |
| 20260506144004 | 17 | 0 | 0.0 | 0.0 | 0.03 | 0.03 | 0.03 | 1 | 1008.9 |
| 20260506143004 | 17 | 287 | 0.0 | 1.6 | 0.00 | 0.00 | 0.00 | 1 | 1009.1 |
| 20260506141004 | 17 | 0 | 0.0 | 0.0 | 0.00 | 0.00 | 0.00 | 1 | 1008.9 |
| 20260506140004 | 17 | 188 | 0.0 | 1.6 | 0.00 | 0.00 | 0.00 | 1 | 1008.5 |
| 20260506133004 | 17 | 0 | 0.0 | 0.0 | 0.00 | 0.00 | 0.00 | 1 | 1008.9 |
| 20260506132004 | 17 | 168 | 0.0 | 4.8 | 0.00 | 0.00 | 0.00 | 1 | 1009.0 |
| 20260506131004 | 17 | 0 | 0.0 | 0.0 | 0.00 | 0.00 | 0.00 | 1 | 1009.0 |
| 20260506130005 | 17 | 0 | 0.0 | 0.0 | 0.00 | 0.00 | 0.00 | 1 | 1009.1 |
| 20260506125004 | 17 | 0 | 0.0 | 0.0 | 0.00 | 0.00 | 0.00 | 1 | 1009.1 |
| 20260506124004 | 17 | 127 | 0.0 | 1.6 | 0.00 | 0.00 | 0.00 | 1 | 1008.9 |
| 20260506122004 | 17 | 0 | 0.0 | 0.0 | 0.00 | 0.00 | 0.00 | 1 | 1008.8 |
| 20260506121004 | 17 | 0 | 0.0 | 0.0 | 0.00 | 0.00 | 0.00 | 1 | 1008.8 |
| 20260506115004 | 17 | 159 | 0.0 | 1.6 | 0.00 | 0.00 | 0.00 | 1 | 1008.9 |
| 20260506114005 | 17 | 161 | 0.0 | 1.6 | 0.00 | 0.00 | 0.00 | 1 | 1008.7 |
| 20260506113003 | 17 | 0 | 0.0 | 0.0 | 0.00 | 0.00 | 0.00 | 1 | 1008.7 |
| 20260506112003 | 17 | 0 | 0.0 | 0.0 | 0.00 | 0.00 | 0.00 | 1 | 1008.7 |
| 20260506111004 | 17 | 166 | 0.0 | 1.6 | 0.00 | 0.00 | 0.00 | 1 | 1008.6 |
| 20260506110004 | 17 | 168 | 0.0 | 1.6 | 0.00 | 0.00 | 0.00 | 1 | 1008.5 |
| 20260506105005 | 17 | 176 | 0.0 | 6.4 | 0.00 | 0.00 | 0.00 | 1 | 1008.4 |
| 20260506104004 | 17 | 168 | 0.0 | 3.2 | 0.00 | 0.00 | 0.00 | 1 | 1008.2 |
| 20260506103004 | 17 | 0 | 0.0 | 0.0 | 0.00 | 0.00 | 0.00 | 1 | 1008.2 |
| 20260506102004 | 17 | 0 | 0.0 | 0.0 | 0.00 | 0.00 | 0.00 | 1 | 1008.3 |
| 20260506101004 | 17 | 0 | 0.0 | 0.0 | 0.00 | 0.00 | 0.00 | 1 | 1008.3 |
| 20260506100004 | 17 | 332 | 0.0 | 1.6 | 0.00 | 0.00 | 0.00 | 1 | 1008.4 |
| 20260506095004 | 17 | 0 | 0.0 | 0.0 | 0.00 | 0.00 | 0.00 | 1 | 1008.5 |
| 20260506093004 | 17 | 177 | 0.0 | 3.2 | 0.00 | 0.00 | 0.00 | 1 | 1008.4 |
| 20260506092004 | 17 | 157 | 0.0 | 3.2 | 0.00 | 0.03 | 0.00 | 1 | 1008.3 |
| 20260506091003 | 17 | 152 | 0.0 | 1.6 | 0.00 | 0.03 | 0.00 | 1 | 1008.3 |
| 20260506085003 | 17 | 0 | 0.0 | 0.0 | 0.00 | 0.03 | 0.00 | 3 | 1008.5 |
| 20260506084003 | 17 | 144 | 0.0 | 3.2 | 0.00 | 0.03 | 0.00 | 3 | 1008.5 |
| 20260506083004 | 17 | 0 | 0.0 | 0.0 | 0.00 | 0.03 | 0.00 | 3 | 1008.5 |
| 20260506081004 | 17 | 149 | 0.0 | 1.6 | 0.00 | 0.03 | 0.00 | 9 | 1008.5 |
| 20260506073003 | 17 | 0 | 0.0 | 0.0 | 0.00 | 0.03 | 0.00 | 25 | 1008.7 |
| 20260506072004 | 17 | 168 | 0.0 | 4.8 | 0.00 | 0.03 | 0.00 | 28 | 1008.8 |
| 20260506071003 | 17 | 0 | 0.0 | 0.0 | 0.00 | 0.03 | 0.00 | 31 | 1008.8 |
| 20260506062004 | 18 | 0 | 0.0 | 0.0 | 0.00 | 0.03 | 0.00 | 40 | 1009.1 |
| 20260506051004 | 18 | 0 | 0.0 | 0.0 | 0.00 | 0.03 | 0.00 | 45 | 1009.7 |
| 20260506045004 | 18 | 154 | 0.0 | 3.2 | 0.00 | 0.03 | 0.00 | 46 | 1009.8 |
| 20260506044004 | 18 | 147 | 0.0 | 6.4 | 0.00 | 0.03 | 0.00 | 46 | 1009.9 |
| 20260506043003 | 18 | 131 | 0.0 | 3.2 | 0.00 | 0.03 | 0.00 | 48 | 1009.9 |
| 20260506042004 | 18 | 133 | 0.0 | 1.6 | 0.00 | 0.03 | 0.00 | 49 | 1009.8 |
| 20260506041005 | 18 | 0 | 0.0 | 0.0 | 0.00 | 0.03 | 0.00 | 51 | 1009.7 |
| 20260506040005 | 18 | 126 | 0.0 | 1.6 | 0.00 | 0.03 | 0.00 | 53 | 1009.7 |
| 20260506035004 | 19 | 124 | 0.0 | 3.2 | 0.00 | 0.03 | 0.03 | 54 | 1009.7 |
| 20260506034004 | 19 | 123 | 0.0 | 1.6 | 0.00 | 0.03 | 0.03 | 55 | 1009.7 |
| 20260506033004 | 19 | 148 | 0.0 | 3.2 | 0.00 | 0.03 | 0.03 | 55 | 1009.6 |
| 20260506032004 | 20 | 140 | 0.0 | 3.2 | 0.00 | 0.03 | 0.03 | 55 | 1009.6 |
| 20260506031004 | 20 | 13 | 0.0 | 1.6 | 0.00 | 0.03 | 0.03 | 55 | 1009.6 |
| 20260506030004 | 20 | 126 | 0.0 | 3.2 | 0.00 | 0.03 | 0.03 | 55 | 1009.6 |
| 20260506025004 | 20 | 134 | 0.0 | 1.6 | 0.00 | 0.03 | 0.03 | 55 | 1009.6 |
| 20260506024004 | 20 | 167 | 0.0 | 3.2 | 0.00 | 0.03 | 0.03 | 54 | 1009.7 |
| 20260506023004 | 20 | 123 | 0.0 | 1.6 | 0.00 | 0.03 | 0.03 | 54 | 1009.8 |
| 20260506022004 | 21 | 0 | 0.0 | 0.0 | 0.00 | 0.03 | 0.03 | 53 | 1009.6 |
| 20260506020004 | 21 | 170 | 0.0 | 1.6 | 0.00 | 0.03 | 0.03 | 51 | 1009.6 |
| 20260506015003 | 21 | 160 | 0.0 | 1.6 | 0.00 | 0.03 | 0.03 | 51 | 1009.6 |
| 20260506014005 | 21 | 0 | 0.0 | 0.0 | 0.00 | 0.03 | 0.03 | 52 | 1009.6 |
| 20260506013004 | 21 | 86 | 0.0 | 1.6 | 0.00 | 0.03 | 0.03 | 52 | 1009.4 |
| 20260506011003 | 21 | 221 | 0.0 | 4.8 | 0.00 | 0.03 | 0.03 | 51 | 1009.2 |
| 20260506010004 | 21 | 62 | 0.0 | 1.6 | 0.00 | 0.03 | 0.03 | 49 | 1009.0 |
| 20260506004004 | 22 | 48 | 0.0 | 1.6 | 0.00 | 0.03 | 0.03 | 47 | 1008.9 |
| 20260506003004 | 22 | 138 | 0.0 | 1.6 | 0.00 | 0.03 | 0.03 | 46 | 1008.7 |
| 20260506002003 | 22 | 138 | 0.0 | 4.8 | 0.00 | 0.03 | 0.03 | 46 | 1008.6 |
| 20260506001003 | 22 | 243 | 0.0 | 1.6 | 0.00 | 0.03 | 0.03 | 46 | 1008.5 |
| 20260506000004 | 22 | 119 | 0.0 | 3.2 | 0.00 | 0.03 | 0.03 | 46 | 1008.5 |
| 20260505235003 | 23 | 146 | 0.0 | 1.6 | 0.00 | 0.03 | 0.03 | 45 | 1008.4 |
| 20260505234003 | 23 | 145 | 0.0 | 1.6 | 0.00 | 0.03 | 0.03 | 44 | 1008.2 |
| 20260505233004 | 23 | 159 | 0.0 | 1.6 | 0.00 | 0.03 | 0.03 | 42 | 1008.3 |
| 20260505230004 | 24 | 184 | 0.0 | 3.2 | 0.00 | 0.03 | 0.03 | 40 | 1008.3 |
| 20260505225003 | 25 | 49 | 0.0 | 4.8 | 0.00 | 0.03 | 0.03 | 39 | 1008.1 |
| 20260505224004 | 25 | 0 | 0.0 | 0.0 | 0.00 | 0.03 | 0.03 | 40 | 1008.0 |
| 20260505223004 | 25 | 149 | 0.0 | 1.6 | 0.00 | 0.03 | 0.03 | 41 | 1007.9 |
| 20260505222003 | 25 | 183 | 0.0 | 3.2 | 0.00 | 0.03 | 0.03 | 39 | 1007.9 |
| 20260505221004 | 25 | 105 | 0.0 | 8.0 | 0.00 | 0.03 | 0.03 | 39 | 1007.9 |
| 20260505220004 | 25 | 138 | 0.0 | 1.6 | 0.00 | 0.03 | 0.03 | 41 | 1008.1 |
| 20260505215004 | 26 | 0 | 0.0 | 0.0 | 0.00 | 0.03 | 0.03 | 39 | 1008.2 |
| 20260505214004 | 26 | 120 | 0.0 | 1.6 | 0.00 | 0.03 | 0.03 | 39 | 1008.1 |
| 20260505213004 | 26 | 0 | 0.0 | 0.0 | 0.00 | 0.03 | 0.03 | 39 | 1008.1 |
| 20260505212004 | 26 | 16 | 0.0 | 11.3 | 0.00 | 0.03 | 0.03 | 38 | 1007.9 |
| 20260505210003 | 26 | 0 | 0.0 | 0.0 | 0.00 | 0.03 | 0.03 | 39 | 1007.8 |
| 20260505205003 | 26 | 322 | 0.0 | 6.4 | 0.00 | 0.03 | 0.03 | 38 | 1007.8 |
| 20260505204003 | 27 | 137 | 0.0 | 3.2 | 0.00 | 0.03 | 0.03 | 36 | 1007.8 |
| 20260505203004 | 28 | 98 | 0.0 | 1.6 | 0.00 | 0.03 | 0.03 | 36 | 1007.8 |
| 20260505201004 | 27 | 207 | 0.0 | 3.2 | 0.00 | 0.03 | 0.03 | 36 | 1007.9 |
| 20260505200004 | 27 | 171 | 0.0 | 11.3 | 0.00 | 0.03 | 0.03 | 36 | 1008.1 |
| 20260505195004 | 27 | 191 | 0.0 | 6.4 | 0.00 | 0.03 | 0.03 | 34 | 1007.9 |
| 20260505194004 | 27 | 0 | 0.0 | 0.0 | 0.00 | 0.03 | 0.03 | 33 | 1008.1 |
| 20260505193004 | 27 | 106 | 0.0 | 4.8 | 0.00 | 0.03 | 0.03 | 34 | 1007.9 |
| 20260505192004 | 27 | 72 | 0.0 | 6.4 | 0.00 | 0.03 | 0.03 | 35 | 1008.1 |
| 20260505191004 | 27 | 226 | 0.0 | 4.8 | 0.00 | 0.03 | 0.03 | 34 | 1008.2 |
| 20260505190004 | 27 | 185 | 0.0 | 16.1 | 0.00 | 0.03 | 0.03 | 35 | 1008.2 |
| 20260505185005 | 27 | 178 | 0.0 | 14.5 | 0.00 | 0.03 | 0.03 | 37 | 1008.3 |
| 20260505184004 | 27 | 344 | 0.0 | 6.4 | 0.00 | 0.03 | 0.03 | 33 | 1008.3 |